sensor_id;sensor_type;location;lat;lon;timestamp;P1;durP1;ratioP1;P2;durP2;ratioP2
12218;SDS011;6172;42.646;23.344;2023-05-01T00:02:14;4.67;;;3.87;;
12218;SDS011;6172;42.646;23.344;2023-05-01T00:04:41;3.97;;;3.40;;
12218;SDS011;6172;42.646;23.344;2023-05-01T00:07:08;4.10;;;3.70;;
12218;SDS011;6172;42.646;23.344;2023-05-01T00:09:35;5.13;;;3.70;;
12218;SDS011;6172;42.646;23.344;2023-05-01T00:12:01;4.03;;;3.70;;
12218;SDS011;6172;42.646;23.344;2023-05-01T00:14:29;4.73;;;4.10;;
12218;SDS011;6172;42.646;23.344;2023-05-01T00:16:57;4.27;;;3.87;;
12218;SDS011;6172;42.646;23.344;2023-05-01T00:19:25;4.20;;;3.80;;
12218;SDS011;6172;42.646;23.344;2023-05-01T00:21:51;4.10;;;3.80;;
12218;SDS011;6172;42.646;23.344;2023-05-01T00:24:18;4.23;;;3.90;;
12218;SDS011;6172;42.646;23.344;2023-05-01T00:26:45;4.70;;;4.30;;
12218;SDS011;6172;42.646;23.344;2023-05-01T00:29:13;5.47;;;4.20;;
12218;SDS011;6172;42.646;23.344;2023-05-01T00:31:40;4.87;;;4.43;;
12218;SDS011;6172;42.646;23.344;2023-05-01T00:34:09;4.70;;;4.30;;
12218;SDS011;6172;42.646;23.344;2023-05-01T00:36:35;5.33;;;4.53;;
12218;SDS011;6172;42.646;23.344;2023-05-01T00:39:20;5.70;;;4.50;;
12218;SDS011;6172;42.646;23.344;2023-05-01T00:41:47;6.63;;;4.73;;
12218;SDS011;6172;42.646;23.344;2023-05-01T00:44:14;5.40;;;4.90;;
12218;SDS011;6172;42.646;23.344;2023-05-01T00:46:41;5.40;;;4.90;;
12218;SDS011;6172;42.646;23.344;2023-05-01T00:49:10;5.13;;;4.73;;
12218;SDS011;6172;42.646;23.344;2023-05-01T00:51:37;6.30;;;5.13;;
12218;SDS011;6172;42.646;23.344;2023-05-01T00:54:06;6.10;;;5.47;;
12218;SDS011;6172;42.646;23.344;2023-05-01T00:56:33;6.90;;;5.63;;
12218;SDS011;6172;42.646;23.344;2023-05-01T00:59:01;5.60;;;5.03;;
12218;SDS011;6172;42.646;23.344;2023-05-01T01:01:29;5.00;;;4.60;;
12218;SDS011;6172;42.646;23.344;2023-05-01T01:03:56;6.93;;;5.00;;
12218;SDS011;6172;42.646;23.344;2023-05-01T01:06:27;5.53;;;5.03;;
12218;SDS011;6172;42.646;23.344;2023-05-01T01:09:00;6.67;;;5.83;;
12218;SDS011;6172;42.646;23.344;2023-05-01T01:11:37;6.30;;;4.97;;
12218;SDS011;6172;42.646;23.344;2023-05-01T01:14:14;5.50;;;4.90;;
12218;SDS011;6172;42.646;23.344;2023-05-01T01:16:45;6.60;;;4.97;;
12218;SDS011;6172;42.646;23.344;2023-05-01T01:22:20;6.83;;;5.27;;
12218;SDS011;6172;42.646;23.344;2023-05-01T01:24:55;5.90;;;5.30;;
12218;SDS011;6172;42.646;23.344;2023-05-01T01:27:52;5.60;;;5.00;;
12218;SDS011;6172;42.646;23.344;2023-05-01T01:30:41;9.10;;;5.57;;
12218;SDS011;6172;42.646;23.344;2023-05-01T01:39:17;7.83;;;5.80;;
12218;SDS011;6172;42.646;23.344;2023-05-01T01:41:52;5.97;;;5.37;;
12218;SDS011;6172;42.646;23.344;2023-05-01T01:44:24;8.23;;;6.20;;
12218;SDS011;6172;42.646;23.344;2023-05-01T01:46:59;6.00;;;5.07;;
12218;SDS011;6172;42.646;23.344;2023-05-01T01:49:31;7.43;;;5.53;;
12218;SDS011;6172;42.646;23.344;2023-05-01T01:52:00;5.90;;;5.30;;
12218;SDS011;6172;42.646;23.344;2023-05-01T01:54:30;6.90;;;6.10;;
12218;SDS011;6172;42.646;23.344;2023-05-01T01:57:01;7.43;;;5.57;;
12218;SDS011;6172;42.646;23.344;2023-05-01T01:59:29;8.67;;;5.80;;
12218;SDS011;6172;42.646;23.344;2023-05-01T02:01:59;9.40;;;6.23;;
12218;SDS011;6172;42.646;23.344;2023-05-01T02:04:27;8.93;;;6.10;;
12218;SDS011;6172;42.646;23.344;2023-05-01T02:06:58;7.40;;;5.63;;
12218;SDS011;6172;42.646;23.344;2023-05-01T02:09:27;6.20;;;5.67;;
12218;SDS011;6172;42.646;23.344;2023-05-01T02:11:55;7.93;;;6.20;;
12218;SDS011;6172;42.646;23.344;2023-05-01T02:14:25;6.87;;;6.27;;
12218;SDS011;6172;42.646;23.344;2023-05-01T02:16:53;7.33;;;6.40;;
12218;SDS011;6172;42.646;23.344;2023-05-01T02:19:21;9.27;;;6.53;;
12218;SDS011;6172;42.646;23.344;2023-05-01T02:21:49;8.77;;;6.63;;
12218;SDS011;6172;42.646;23.344;2023-05-01T02:24:21;10.10;;;5.93;;
12218;SDS011;6172;42.646;23.344;2023-05-01T02:26:51;7.50;;;6.70;;
12218;SDS011;6172;42.646;23.344;2023-05-01T02:29:22;8.10;;;5.83;;
12218;SDS011;6172;42.646;23.344;2023-05-01T02:31:49;7.63;;;6.10;;
12218;SDS011;6172;42.646;23.344;2023-05-01T02:34:16;9.70;;;6.70;;
12218;SDS011;6172;42.646;23.344;2023-05-01T02:36:43;9.33;;;6.67;;
12218;SDS011;6172;42.646;23.344;2023-05-01T02:39:10;7.77;;;6.53;;
12218;SDS011;6172;42.646;23.344;2023-05-01T02:41:39;10.30;;;7.50;;
12218;SDS011;6172;42.646;23.344;2023-05-01T02:44:07;10.77;;;8.03;;
12218;SDS011;6172;42.646;23.344;2023-05-01T02:46:36;12.03;;;7.70;;
12218;SDS011;6172;42.646;23.344;2023-05-01T02:49:10;8.50;;;7.37;;
12218;SDS011;6172;42.646;23.344;2023-05-01T02:51:38;9.10;;;7.67;;
12218;SDS011;6172;42.646;23.344;2023-05-01T02:54:06;8.00;;;7.17;;
12218;SDS011;6172;42.646;23.344;2023-05-01T02:56:33;8.80;;;6.77;;
12218;SDS011;6172;42.646;23.344;2023-05-01T02:59:02;10.83;;;7.67;;
12218;SDS011;6172;42.646;23.344;2023-05-01T03:01:29;8.83;;;7.23;;
12218;SDS011;6172;42.646;23.344;2023-05-01T03:03:56;10.30;;;7.87;;
12218;SDS011;6172;42.646;23.344;2023-05-01T03:06:23;9.93;;;7.37;;
12218;SDS011;6172;42.646;23.344;2023-05-01T03:08:53;11.63;;;7.67;;
12218;SDS011;6172;42.646;23.344;2023-05-01T03:11:20;9.37;;;7.50;;
12218;SDS011;6172;42.646;23.344;2023-05-01T03:13:48;10.70;;;8.37;;
12218;SDS011;6172;42.646;23.344;2023-05-01T03:16:16;13.07;;;7.37;;
12218;SDS011;6172;42.646;23.344;2023-05-01T03:18:43;14.47;;;7.97;;
12218;SDS011;6172;42.646;23.344;2023-05-01T03:21:10;11.47;;;7.73;;
12218;SDS011;6172;42.646;23.344;2023-05-01T03:23:37;15.27;;;8.70;;
12218;SDS011;6172;42.646;23.344;2023-05-01T03:26:04;12.57;;;8.50;;
12218;SDS011;6172;42.646;23.344;2023-05-01T03:28:31;12.50;;;8.70;;
12218;SDS011;6172;42.646;23.344;2023-05-01T03:30:58;10.43;;;8.40;;
12218;SDS011;6172;42.646;23.344;2023-05-01T03:33:27;12.63;;;9.87;;
12218;SDS011;6172;42.646;23.344;2023-05-01T03:36:00;14.60;;;10.23;;
12218;SDS011;6172;42.646;23.344;2023-05-01T03:38:30;13.57;;;10.07;;
12218;SDS011;6172;42.646;23.344;2023-05-01T03:40:57;14.67;;;11.53;;
12218;SDS011;6172;42.646;23.344;2023-05-01T03:43:24;16.37;;;11.80;;
12218;SDS011;6172;42.646;23.344;2023-05-01T03:45:52;14.03;;;11.63;;
12218;SDS011;6172;42.646;23.344;2023-05-01T03:48:18;15.33;;;11.73;;
12218;SDS011;6172;42.646;23.344;2023-05-01T03:50:50;15.07;;;11.93;;
12218;SDS011;6172;42.646;23.344;2023-05-01T03:53:17;15.67;;;11.80;;
12218;SDS011;6172;42.646;23.344;2023-05-01T03:55:45;15.20;;;12.17;;
12218;SDS011;6172;42.646;23.344;2023-05-01T03:58:12;16.30;;;11.93;;
12218;SDS011;6172;42.646;23.344;2023-05-01T04:00:39;19.37;;;11.93;;
12218;SDS011;6172;42.646;23.344;2023-05-01T04:03:06;14.17;;;11.43;;
12218;SDS011;6172;42.646;23.344;2023-05-01T04:05:33;15.63;;;11.93;;
12218;SDS011;6172;42.646;23.344;2023-05-01T04:08:02;13.23;;;11.03;;
12218;SDS011;6172;42.646;23.344;2023-05-01T04:10:29;15.83;;;10.97;;
12218;SDS011;6172;42.646;23.344;2023-05-01T04:12:56;13.17;;;10.70;;
12218;SDS011;6172;42.646;23.344;2023-05-01T04:15:23;14.23;;;11.10;;
12218;SDS011;6172;42.646;23.344;2023-05-01T04:17:50;13.33;;;10.90;;
12218;SDS011;6172;42.646;23.344;2023-05-01T04:20:18;12.13;;;10.10;;
12218;SDS011;6172;42.646;23.344;2023-05-01T04:22:45;13.37;;;10.17;;
12218;SDS011;6172;42.646;23.344;2023-05-01T04:25:13;11.50;;;10.10;;
12218;SDS011;6172;42.646;23.344;2023-05-01T04:27:40;11.77;;;8.97;;
12218;SDS011;6172;42.646;23.344;2023-05-01T04:30:07;11.43;;;9.23;;
12218;SDS011;6172;42.646;23.344;2023-05-01T04:32:35;13.27;;;9.13;;
12218;SDS011;6172;42.646;23.344;2023-05-01T04:35:02;11.67;;;9.33;;
12218;SDS011;6172;42.646;23.344;2023-05-01T04:37:29;12.50;;;9.20;;
12218;SDS011;6172;42.646;23.344;2023-05-01T04:39:56;13.77;;;10.03;;
12218;SDS011;6172;42.646;23.344;2023-05-01T04:42:30;15.50;;;9.90;;
12218;SDS011;6172;42.646;23.344;2023-05-01T04:44:56;13.13;;;9.60;;
12218;SDS011;6172;42.646;23.344;2023-05-01T04:47:25;13.40;;;9.63;;
12218;SDS011;6172;42.646;23.344;2023-05-01T04:49:52;14.80;;;9.00;;
12218;SDS011;6172;42.646;23.344;2023-05-01T04:52:19;11.87;;;9.70;;
12218;SDS011;6172;42.646;23.344;2023-05-01T04:54:46;12.40;;;9.43;;
12218;SDS011;6172;42.646;23.344;2023-05-01T04:57:14;11.17;;;9.47;;
12218;SDS011;6172;42.646;23.344;2023-05-01T04:59:43;10.17;;;8.57;;
12218;SDS011;6172;42.646;23.344;2023-05-01T05:02:09;11.97;;;9.13;;
12218;SDS011;6172;42.646;23.344;2023-05-01T05:04:36;9.57;;;8.17;;
12218;SDS011;6172;42.646;23.344;2023-05-01T05:07:04;10.90;;;8.93;;
12218;SDS011;6172;42.646;23.344;2023-05-01T05:09:31;13.77;;;8.57;;
12218;SDS011;6172;42.646;23.344;2023-05-01T05:11:58;12.20;;;9.20;;
12218;SDS011;6172;42.646;23.344;2023-05-01T05:14:27;9.70;;;8.27;;
12218;SDS011;6172;42.646;23.344;2023-05-01T05:16:56;9.20;;;7.67;;
12218;SDS011;6172;42.646;23.344;2023-05-01T05:19:23;11.20;;;7.80;;
12218;SDS011;6172;42.646;23.344;2023-05-01T05:21:50;9.20;;;8.20;;
12218;SDS011;6172;42.646;23.344;2023-05-01T05:24:17;12.10;;;9.30;;
12218;SDS011;6172;42.646;23.344;2023-05-01T05:26:44;11.23;;;8.40;;
12218;SDS011;6172;42.646;23.344;2023-05-01T05:29:11;9.57;;;7.80;;
12218;SDS011;6172;42.646;23.344;2023-05-01T05:31:38;10.73;;;7.93;;
12218;SDS011;6172;42.646;23.344;2023-05-01T05:34:08;10.47;;;8.67;;
12218;SDS011;6172;42.646;23.344;2023-05-01T05:36:35;8.33;;;7.17;;
12218;SDS011;6172;42.646;23.344;2023-05-01T05:39:02;7.70;;;6.60;;
12218;SDS011;6172;42.646;23.344;2023-05-01T05:41:29;6.80;;;6.10;;
12218;SDS011;6172;42.646;23.344;2023-05-01T05:43:56;6.45;;;5.43;;
12218;SDS011;6172;42.646;23.344;2023-05-01T05:46:23;6.72;;;5.97;;
12218;SDS011;6172;42.646;23.344;2023-05-01T05:48:52;7.10;;;5.97;;
12218;SDS011;6172;42.646;23.344;2023-05-01T05:51:21;6.15;;;5.55;;
12218;SDS011;6172;42.646;23.344;2023-05-01T05:53:48;6.05;;;5.38;;
12218;SDS011;6172;42.646;23.344;2023-05-01T05:56:15;9.35;;;6.00;;
12218;SDS011;6172;42.646;23.344;2023-05-01T05:58:46;8.27;;;6.28;;
12218;SDS011;6172;42.646;23.344;2023-05-01T06:01:35;8.80;;;6.30;;
12218;SDS011;6172;42.646;23.344;2023-05-01T06:04:04;6.65;;;5.82;;
12218;SDS011;6172;42.646;23.344;2023-05-01T06:09:01;6.43;;;5.57;;
12218;SDS011;6172;42.646;23.344;2023-05-01T06:11:28;7.18;;;5.65;;
12218;SDS011;6172;42.646;23.344;2023-05-01T06:13:55;10.43;;;5.78;;
12218;SDS011;6172;42.646;23.344;2023-05-01T06:16:22;7.97;;;5.57;;
12218;SDS011;6172;42.646;23.344;2023-05-01T06:18:49;6.10;;;5.07;;
12218;SDS011;6172;42.646;23.344;2023-05-01T06:21:16;5.25;;;4.80;;
12218;SDS011;6172;42.646;23.344;2023-05-01T06:23:45;5.13;;;4.70;;
12218;SDS011;6172;42.646;23.344;2023-05-01T06:26:12;4.90;;;4.60;;
12218;SDS011;6172;42.646;23.344;2023-05-01T06:28:39;5.80;;;5.30;;
12218;SDS011;6172;42.646;23.344;2023-05-01T06:31:06;6.32;;;4.80;;
12218;SDS011;6172;42.646;23.344;2023-05-01T06:33:33;5.68;;;5.28;;
12218;SDS011;6172;42.646;23.344;2023-05-01T06:36:02;5.82;;;5.13;;
12218;SDS011;6172;42.646;23.344;2023-05-01T06:38:30;5.15;;;4.72;;
12218;SDS011;6172;42.646;23.344;2023-05-01T06:41:00;5.43;;;4.82;;
12218;SDS011;6172;42.646;23.344;2023-05-01T06:43:26;5.53;;;5.00;;
12218;SDS011;6172;42.646;23.344;2023-05-01T06:45:55;5.13;;;4.63;;
12218;SDS011;6172;42.646;23.344;2023-05-01T06:48:22;5.05;;;4.65;;
12218;SDS011;6172;42.646;23.344;2023-05-01T06:50:49;7.60;;;4.80;;
12218;SDS011;6172;42.646;23.344;2023-05-01T06:53:16;6.00;;;4.93;;
12218;SDS011;6172;42.646;23.344;2023-05-01T06:55:44;5.30;;;4.80;;
12218;SDS011;6172;42.646;23.344;2023-05-01T06:58:12;5.32;;;4.82;;
12218;SDS011;6172;42.646;23.344;2023-05-01T07:00:40;5.75;;;4.90;;
12218;SDS011;6172;42.646;23.344;2023-05-01T07:03:07;5.43;;;4.93;;
12218;SDS011;6172;42.646;23.344;2023-05-01T07:05:34;6.38;;;4.90;;
12218;SDS011;6172;42.646;23.344;2023-05-01T07:08:01;5.15;;;4.65;;
12218;SDS011;6172;42.646;23.344;2023-05-01T07:10:28;6.15;;;5.30;;
12218;SDS011;6172;42.646;23.344;2023-05-01T07:12:54;8.30;;;4.50;;
12218;SDS011;6172;42.646;23.344;2023-05-01T07:15:23;4.78;;;4.28;;
12218;SDS011;6172;42.646;23.344;2023-05-01T07:17:50;5.18;;;4.53;;
12218;SDS011;6172;42.646;23.344;2023-05-01T07:20:17;4.05;;;3.75;;
12218;SDS011;6172;42.646;23.344;2023-05-01T07:22:44;5.28;;;4.47;;
12218;SDS011;6172;42.646;23.344;2023-05-01T07:25:11;7.60;;;4.38;;
12218;SDS011;6172;42.646;23.344;2023-05-01T07:27:38;5.85;;;4.20;;
12218;SDS011;6172;42.646;23.344;2023-05-01T07:30:06;4.68;;;3.65;;
12218;SDS011;6172;42.646;23.344;2023-05-01T07:32:37;4.82;;;4.32;;
12218;SDS011;6172;42.646;23.344;2023-05-01T07:35:05;4.70;;;4.10;;
12218;SDS011;6172;42.646;23.344;2023-05-01T07:37:32;5.15;;;4.68;;
12218;SDS011;6172;42.646;23.344;2023-05-01T07:39:59;5.53;;;5.03;;
12218;SDS011;6172;42.646;23.344;2023-05-01T07:42:26;8.07;;;4.95;;
12218;SDS011;6172;42.646;23.344;2023-05-01T07:44:53;5.47;;;4.97;;
12218;SDS011;6172;42.646;23.344;2023-05-01T07:47:20;7.47;;;5.10;;
12218;SDS011;6172;42.646;23.344;2023-05-01T07:49:49;6.85;;;5.40;;
12218;SDS011;6172;42.646;23.344;2023-05-01T07:52:19;4.90;;;4.50;;
12218;SDS011;6172;42.646;23.344;2023-05-01T07:54:48;5.35;;;4.93;;
12218;SDS011;6172;42.646;23.344;2023-05-01T07:57:15;7.05;;;4.70;;
12218;SDS011;6172;42.646;23.344;2023-05-01T07:59:42;6.22;;;5.18;;
12218;SDS011;6172;42.646;23.344;2023-05-01T08:02:09;7.75;;;5.10;;
12218;SDS011;6172;42.646;23.344;2023-05-01T08:04:37;8.55;;;5.97;;
12218;SDS011;6172;42.646;23.344;2023-05-01T08:07:07;5.45;;;4.95;;
12218;SDS011;6172;42.646;23.344;2023-05-01T08:09:33;6.65;;;5.18;;
12218;SDS011;6172;42.646;23.344;2023-05-01T08:12:00;5.32;;;4.53;;
12218;SDS011;6172;42.646;23.344;2023-05-01T08:14:30;4.68;;;4.28;;
12218;SDS011;6172;42.646;23.344;2023-05-01T08:16:57;4.45;;;4.05;;
12218;SDS011;6172;42.646;23.344;2023-05-01T08:19:24;5.47;;;3.60;;
12218;SDS011;6172;42.646;23.344;2023-05-01T08:21:52;5.40;;;4.20;;
12218;SDS011;6172;42.646;23.344;2023-05-01T08:24:20;5.68;;;4.03;;
12218;SDS011;6172;42.646;23.344;2023-05-01T08:26:47;3.65;;;3.40;;
12218;SDS011;6172;42.646;23.344;2023-05-01T08:29:14;3.97;;;3.42;;
12218;SDS011;6172;42.646;23.344;2023-05-01T08:31:41;4.53;;;2.35;;
12218;SDS011;6172;42.646;23.344;2023-05-01T08:34:08;3.10;;;2.80;;
12218;SDS011;6172;42.646;23.344;2023-05-01T08:36:34;3.42;;;3.10;;
12218;SDS011;6172;42.646;23.344;2023-05-01T08:39:02;2.97;;;2.50;;
12218;SDS011;6172;42.646;23.344;2023-05-01T08:41:30;4.88;;;2.88;;
12218;SDS011;6172;42.646;23.344;2023-05-01T08:44:00;4.03;;;3.15;;
12218;SDS011;6172;42.646;23.344;2023-05-01T08:46:28;4.05;;;3.60;;
12218;SDS011;6172;42.646;23.344;2023-05-01T08:49:03;4.57;;;3.40;;
12218;SDS011;6172;42.646;23.344;2023-05-01T08:51:31;3.33;;;2.75;;
12218;SDS011;6172;42.646;23.344;2023-05-01T08:53:59;4.03;;;3.13;;
12218;SDS011;6172;42.646;23.344;2023-05-01T08:56:28;4.03;;;3.00;;
12218;SDS011;6172;42.646;23.344;2023-05-01T08:58:57;3.22;;;2.97;;
12218;SDS011;6172;42.646;23.344;2023-05-01T09:01:30;5.78;;;3.47;;
12218;SDS011;6172;42.646;23.344;2023-05-01T09:04:00;3.75;;;2.85;;
12218;SDS011;6172;42.646;23.344;2023-05-01T09:06:28;4.78;;;2.90;;
12218;SDS011;6172;42.646;23.344;2023-05-01T09:08:56;4.53;;;2.60;;
12218;SDS011;6172;42.646;23.344;2023-05-01T09:11:23;3.42;;;2.40;;
12218;SDS011;6172;42.646;23.344;2023-05-01T09:13:52;3.28;;;2.08;;
12218;SDS011;6172;42.646;23.344;2023-05-01T09:16:21;4.30;;;1.95;;
12218;SDS011;6172;42.646;23.344;2023-05-01T09:18:48;3.03;;;2.08;;
12218;SDS011;6172;42.646;23.344;2023-05-01T09:21:15;3.42;;;1.70;;
12218;SDS011;6172;42.646;23.344;2023-05-01T09:23:42;1.65;;;1.52;;
12218;SDS011;6172;42.646;23.344;2023-05-01T09:26:09;2.88;;;2.08;;
12218;SDS011;6172;42.646;23.344;2023-05-01T09:28:39;2.28;;;1.20;;
12218;SDS011;6172;42.646;23.344;2023-05-01T09:31:22;1.98;;;1.52;;
12218;SDS011;6172;42.646;23.344;2023-05-01T09:33:53;2.75;;;1.73;;
12218;SDS011;6172;42.646;23.344;2023-05-01T09:36:21;3.20;;;2.08;;
12218;SDS011;6172;42.646;23.344;2023-05-01T09:38:49;2.63;;;2.42;;
12218;SDS011;6172;42.646;23.344;2023-05-01T09:41:16;3.70;;;2.15;;
12218;SDS011;6172;42.646;23.344;2023-05-01T09:43:49;2.15;;;1.80;;
12218;SDS011;6172;42.646;23.344;2023-05-01T09:46:17;6.43;;;1.70;;
12218;SDS011;6172;42.646;23.344;2023-05-01T09:48:52;2.75;;;1.73;;
12218;SDS011;6172;42.646;23.344;2023-05-01T09:51:21;2.38;;;1.88;;
12218;SDS011;6172;42.646;23.344;2023-05-01T09:53:51;2.88;;;1.85;;
12218;SDS011;6172;42.646;23.344;2023-05-01T09:56:18;3.10;;;1.70;;
12218;SDS011;6172;42.646;23.344;2023-05-01T09:58:47;2.65;;;2.10;;
12218;SDS011;6172;42.646;23.344;2023-05-01T10:01:15;2.28;;;2.08;;
12218;SDS011;6172;42.646;23.344;2023-05-01T10:03:43;3.10;;;2.10;;
12218;SDS011;6172;42.646;23.344;2023-05-01T10:06:24;5.75;;;2.33;;
12218;SDS011;6172;42.646;23.344;2023-05-01T10:08:53;2.55;;;2.17;;
12218;SDS011;6172;42.646;23.344;2023-05-01T10:11:20;2.17;;;2.08;;
12218;SDS011;6172;42.646;23.344;2023-05-01T10:16:33;4.85;;;1.83;;
12218;SDS011;6172;42.646;23.344;2023-05-01T10:19:02;1.85;;;1.75;;
12218;SDS011;6172;42.646;23.344;2023-05-01T10:21:30;5.10;;;1.77;;
12218;SDS011;6172;42.646;23.344;2023-05-01T10:23:58;1.85;;;1.70;;
12218;SDS011;6172;42.646;23.344;2023-05-01T10:26:26;1.60;;;1.40;;
12218;SDS011;6172;42.646;23.344;2023-05-01T10:28:53;2.55;;;1.17;;
12218;SDS011;6172;42.646;23.344;2023-05-01T10:31:22;3.22;;;1.15;;
12218;SDS011;6172;42.646;23.344;2023-05-01T10:33:50;3.58;;;1.77;;
12218;SDS011;6172;42.646;23.344;2023-05-01T10:36:18;1.85;;;1.52;;
12218;SDS011;6172;42.646;23.344;2023-05-01T10:38:50;1.45;;;1.27;;
12218;SDS011;6172;42.646;23.344;2023-05-01T10:41:17;2.85;;;1.85;;
12218;SDS011;6172;42.646;23.344;2023-05-01T10:44:23;2.28;;;1.85;;
12218;SDS011;6172;42.646;23.344;2023-05-01T10:46:52;2.67;;;1.50;;
12218;SDS011;6172;42.646;23.344;2023-05-01T10:49:19;1.45;;;1.25;;
12218;SDS011;6172;42.646;23.344;2023-05-01T10:51:59;4.30;;;1.20;;
12218;SDS011;6172;42.646;23.344;2023-05-01T10:54:29;2.25;;;1.20;;
12218;SDS011;6172;42.646;23.344;2023-05-01T10:56:57;1.65;;;1.55;;
12218;SDS011;6172;42.646;23.344;2023-05-01T10:59:26;2.42;;;1.65;;
12218;SDS011;6172;42.646;23.344;2023-05-01T11:01:53;2.88;;;1.30;;
12218;SDS011;6172;42.646;23.344;2023-05-01T11:07:21;3.35;;;1.25;;
12218;SDS011;6172;42.646;23.344;2023-05-01T11:09:59;1.48;;;1.38;;
12218;SDS011;6172;42.646;23.344;2023-05-01T11:12:47;1.73;;;1.63;;
12218;SDS011;6172;42.646;23.344;2023-05-01T11:15:27;1.50;;;1.40;;
12218;SDS011;6172;42.646;23.344;2023-05-01T11:18:01;3.08;;;1.50;;
12218;SDS011;6172;42.646;23.344;2023-05-01T11:20:47;1.98;;;1.30;;
12218;SDS011;6172;42.646;23.344;2023-05-01T11:23:18;1.83;;;1.58;;
12218;SDS011;6172;42.646;23.344;2023-05-01T11:25:59;1.30;;;1.20;;
12218;SDS011;6172;42.646;23.344;2023-05-01T11:28:31;1.73;;;1.20;;
12218;SDS011;6172;42.646;23.344;2023-05-01T11:31:18;1.58;;;1.40;;
12218;SDS011;6172;42.646;23.344;2023-05-01T11:33:46;3.10;;;1.30;;
12218;SDS011;6172;42.646;23.344;2023-05-01T11:36:17;1.15;;;1.05;;
12218;SDS011;6172;42.646;23.344;2023-05-01T11:38:51;1.40;;;1.30;;
12218;SDS011;6172;42.646;23.344;2023-05-01T11:41:22;1.13;;;0.88;;
12218;SDS011;6172;42.646;23.344;2023-05-01T11:43:52;1.75;;;1.20;;
12218;SDS011;6172;42.646;23.344;2023-05-01T11:46:23;3.10;;;1.15;;
12218;SDS011;6172;42.646;23.344;2023-05-01T11:48:52;1.30;;;1.20;;
12218;SDS011;6172;42.646;23.344;2023-05-01T11:51:20;1.10;;;1.00;;
12218;SDS011;6172;42.646;23.344;2023-05-01T11:53:59;1.10;;;1.08;;
12218;SDS011;6172;42.646;23.344;2023-05-01T11:56:31;1.42;;;0.77;;
12218;SDS011;6172;42.646;23.344;2023-05-01T11:59:00;0.80;;;0.80;;
12218;SDS011;6172;42.646;23.344;2023-05-01T12:01:36;1.05;;;0.70;;
12218;SDS011;6172;42.646;23.344;2023-05-01T12:04:04;0.90;;;0.90;;
12218;SDS011;6172;42.646;23.344;2023-05-01T12:06:35;1.95;;;0.70;;
12218;SDS011;6172;42.646;23.344;2023-05-01T12:09:05;1.92;;;0.77;;
12218;SDS011;6172;42.646;23.344;2023-05-01T12:11:34;0.52;;;0.52;;
12218;SDS011;6172;42.646;23.344;2023-05-01T12:14:03;1.35;;;0.80;;
12218;SDS011;6172;42.646;23.344;2023-05-01T12:16:31;0.40;;;0.40;;
12218;SDS011;6172;42.646;23.344;2023-05-01T12:18:58;2.83;;;0.55;;
12218;SDS011;6172;42.646;23.344;2023-05-01T12:21:25;0.98;;;0.57;;
12218;SDS011;6172;42.646;23.344;2023-05-01T12:23:52;1.17;;;0.80;;
12218;SDS011;6172;42.646;23.344;2023-05-01T12:26:20;2.08;;;0.90;;
12218;SDS011;6172;42.646;23.344;2023-05-01T12:28:54;1.92;;;0.75;;
12218;SDS011;6172;42.646;23.344;2023-05-01T12:31:22;3.13;;;0.50;;
12218;SDS011;6172;42.646;23.344;2023-05-01T12:33:53;2.03;;;0.70;;
12218;SDS011;6172;42.646;23.344;2023-05-01T12:36:22;2.28;;;0.65;;
12218;SDS011;6172;42.646;23.344;2023-05-01T12:38:54;3.00;;;0.90;;
12218;SDS011;6172;42.646;23.344;2023-05-01T12:41:37;1.92;;;0.70;;
12218;SDS011;6172;42.646;23.344;2023-05-01T12:44:29;0.55;;;0.50;;
12218;SDS011;6172;42.646;23.344;2023-05-01T12:46:57;0.45;;;0.45;;
12218;SDS011;6172;42.646;23.344;2023-05-01T12:49:26;0.60;;;0.40;;
12218;SDS011;6172;42.646;23.344;2023-05-01T12:51:53;1.50;;;0.70;;
12218;SDS011;6172;42.646;23.344;2023-05-01T12:54:23;0.73;;;0.60;;
12218;SDS011;6172;42.646;23.344;2023-05-01T12:56:52;1.15;;;0.70;;
12218;SDS011;6172;42.646;23.344;2023-05-01T12:59:31;0.80;;;0.57;;
12218;SDS011;6172;42.646;23.344;2023-05-01T13:01:59;0.80;;;0.70;;
12218;SDS011;6172;42.646;23.344;2023-05-01T13:04:27;0.73;;;0.35;;
12218;SDS011;6172;42.646;23.344;2023-05-01T13:06:55;0.40;;;0.40;;
12218;SDS011;6172;42.646;23.344;2023-05-01T13:09:22;1.55;;;0.40;;
12218;SDS011;6172;42.646;23.344;2023-05-01T13:12:00;1.88;;;0.50;;
12218;SDS011;6172;42.646;23.344;2023-05-01T13:14:35;0.68;;;0.50;;
12218;SDS011;6172;42.646;23.344;2023-05-01T13:17:04;1.27;;;0.63;;
12218;SDS011;6172;42.646;23.344;2023-05-01T13:19:34;1.52;;;0.52;;
12218;SDS011;6172;42.646;23.344;2023-05-01T13:22:08;1.95;;;0.45;;
12218;SDS011;6172;42.646;23.344;2023-05-01T13:24:36;0.73;;;0.43;;
12218;SDS011;6172;42.646;23.344;2023-05-01T13:27:04;0.68;;;0.57;;
12218;SDS011;6172;42.646;23.344;2023-05-01T13:29:31;1.85;;;0.80;;
12218;SDS011;6172;42.646;23.344;2023-05-01T13:32:01;1.58;;;0.90;;
12218;SDS011;6172;42.646;23.344;2023-05-01T13:34:30;3.05;;;0.90;;
12218;SDS011;6172;42.646;23.344;2023-05-01T13:36:59;1.10;;;1.00;;
12218;SDS011;6172;42.646;23.344;2023-05-01T13:39:27;1.20;;;1.10;;
12218;SDS011;6172;42.646;23.344;2023-05-01T13:41:54;1.42;;;0.65;;
12218;SDS011;6172;42.646;23.344;2023-05-01T13:44:21;0.77;;;0.68;;
12218;SDS011;6172;42.646;23.344;2023-05-01T13:46:48;0.70;;;0.70;;
12218;SDS011;6172;42.646;23.344;2023-05-01T13:49:19;0.75;;;0.75;;
12218;SDS011;6172;42.646;23.344;2023-05-01T13:51:46;1.23;;;1.02;;
12218;SDS011;6172;42.646;23.344;2023-05-01T13:54:15;1.53;;;0.60;;
12218;SDS011;6172;42.646;23.344;2023-05-01T13:56:43;1.03;;;0.73;;
12218;SDS011;6172;42.646;23.344;2023-05-01T13:59:10;0.95;;;0.82;;
12218;SDS011;6172;42.646;23.344;2023-05-01T14:01:38;0.93;;;0.80;;
12218;SDS011;6172;42.646;23.344;2023-05-01T14:04:13;0.70;;;0.70;;
12218;SDS011;6172;42.646;23.344;2023-05-01T14:06:43;0.77;;;0.60;;
12218;SDS011;6172;42.646;23.344;2023-05-01T14:09:11;0.67;;;0.67;;
12218;SDS011;6172;42.646;23.344;2023-05-01T14:11:40;0.60;;;0.60;;
12218;SDS011;6172;42.646;23.344;2023-05-01T14:14:10;0.57;;;0.50;;
12218;SDS011;6172;42.646;23.344;2023-05-01T14:16:40;0.60;;;0.50;;
12218;SDS011;6172;42.646;23.344;2023-05-01T14:19:08;1.90;;;0.67;;
12218;SDS011;6172;42.646;23.344;2023-05-01T14:21:37;0.83;;;0.60;;
12218;SDS011;6172;42.646;23.344;2023-05-01T14:24:09;1.38;;;0.60;;
12218;SDS011;6172;42.646;23.344;2023-05-01T14:26:37;0.60;;;0.60;;
12218;SDS011;6172;42.646;23.344;2023-05-01T14:29:05;1.27;;;0.80;;
12218;SDS011;6172;42.646;23.344;2023-05-01T14:31:32;0.70;;;0.70;;
12218;SDS011;6172;42.646;23.344;2023-05-01T14:34:01;3.38;;;0.50;;
12218;SDS011;6172;42.646;23.344;2023-05-01T14:36:30;1.30;;;0.70;;
12218;SDS011;6172;42.646;23.344;2023-05-01T14:38:58;0.60;;;0.57;;
12218;SDS011;6172;42.646;23.344;2023-05-01T14:41:28;2.58;;;0.52;;
12218;SDS011;6172;42.646;23.344;2023-05-01T14:43:55;0.40;;;0.40;;
12218;SDS011;6172;42.646;23.344;2023-05-01T14:46:26;0.40;;;0.40;;
12218;SDS011;6172;42.646;23.344;2023-05-01T14:48:54;0.40;;;0.40;;
12218;SDS011;6172;42.646;23.344;2023-05-01T14:51:23;0.70;;;0.50;;
12218;SDS011;6172;42.646;23.344;2023-05-01T14:53:50;1.98;;;0.60;;
12218;SDS011;6172;42.646;23.344;2023-05-01T14:56:20;0.55;;;0.47;;
12218;SDS011;6172;42.646;23.344;2023-05-01T14:58:49;1.48;;;0.40;;
12218;SDS011;6172;42.646;23.344;2023-05-01T15:01:16;1.40;;;0.50;;
12218;SDS011;6172;42.646;23.344;2023-05-01T15:03:43;0.40;;;0.40;;
12218;SDS011;6172;42.646;23.344;2023-05-01T15:06:12;0.70;;;0.70;;
12218;SDS011;6172;42.646;23.344;2023-05-01T15:08:38;1.03;;;0.70;;
12218;SDS011;6172;42.646;23.344;2023-05-01T15:11:06;0.83;;;0.50;;
12218;SDS011;6172;42.646;23.344;2023-05-01T15:13:32;1.47;;;0.60;;
12218;SDS011;6172;42.646;23.344;2023-05-01T15:16:01;0.60;;;0.60;;